sensor_id;sensor_type;location;lat;lon;timestamp;P1;durP1;ratioP1;P2;durP2;ratioP2
2772;SDS011;1394;47.044;15.744;2022-07-10T00:01:38;3.47;;;2.70;;
2772;SDS011;1394;47.044;15.744;2022-07-10T00:04:05;3.07;;;2.77;;
2772;SDS011;1394;47.044;15.744;2022-07-10T00:06:32;3.40;;;2.70;;
2772;SDS011;1394;47.044;15.744;2022-07-10T00:09:00;3.63;;;2.90;;
2772;SDS011;1394;47.044;15.744;2022-07-10T00:11:27;3.17;;;2.10;;
2772;SDS011;1394;47.044;15.744;2022-07-10T00:13:54;3.00;;;2.30;;
2772;SDS011;1394;47.044;15.744;2022-07-10T00:16:21;2.93;;;2.23;;
2772;SDS011;1394;47.044;15.744;2022-07-10T00:18:51;3.17;;;2.60;;
2772;SDS011;1394;47.044;15.744;2022-07-10T00:21:18;3.60;;;2.60;;
2772;SDS011;1394;47.044;15.744;2022-07-10T00:23:46;3.40;;;2.40;;
2772;SDS011;1394;47.044;15.744;2022-07-10T00:26:13;3.27;;;2.60;;
2772;SDS011;1394;47.044;15.744;2022-07-10T00:28:40;3.87;;;2.47;;
2772;SDS011;1394;47.044;15.744;2022-07-10T00:31:08;3.63;;;2.80;;
2772;SDS011;1394;47.044;15.744;2022-07-10T00:33:36;3.10;;;2.17;;
2772;SDS011;1394;47.044;15.744;2022-07-10T00:36:06;3.13;;;2.60;;
2772;SDS011;1394;47.044;15.744;2022-07-10T00:38:34;3.67;;;1.97;;
2772;SDS011;1394;47.044;15.744;2022-07-10T00:41:01;2.93;;;2.10;;
2772;SDS011;1394;47.044;15.744;2022-07-10T00:43:28;3.47;;;2.23;;
2772;SDS011;1394;47.044;15.744;2022-07-10T00:45:56;4.53;;;2.03;;
2772;SDS011;1394;47.044;15.744;2022-07-10T00:48:23;3.33;;;2.70;;
2772;SDS011;1394;47.044;15.744;2022-07-10T00:50:50;3.90;;;2.83;;
2772;SDS011;1394;47.044;15.744;2022-07-10T00:53:19;3.20;;;2.60;;
2772;SDS011;1394;47.044;15.744;2022-07-10T00:55:47;6.87;;;6.27;;
2772;SDS011;1394;47.044;15.744;2022-07-10T00:58:15;3.80;;;3.10;;
2772;SDS011;1394;47.044;15.744;2022-07-10T01:00:42;4.30;;;3.10;;
2772;SDS011;1394;47.044;15.744;2022-07-10T01:03:09;4.23;;;3.60;;
2772;SDS011;1394;47.044;15.744;2022-07-10T01:05:36;3.20;;;2.90;;
2772;SDS011;1394;47.044;15.744;2022-07-10T01:08:04;4.47;;;2.93;;
2772;SDS011;1394;47.044;15.744;2022-07-10T01:10:32;3.20;;;2.90;;
2772;SDS011;1394;47.044;15.744;2022-07-10T01:13:00;2.53;;;2.33;;
2772;SDS011;1394;47.044;15.744;2022-07-10T01:15:32;3.30;;;2.67;;
2772;SDS011;1394;47.044;15.744;2022-07-10T01:18:01;3.60;;;2.63;;
2772;SDS011;1394;47.044;15.744;2022-07-10T01:20:29;3.00;;;2.60;;
2772;SDS011;1394;47.044;15.744;2022-07-10T01:22:58;3.50;;;2.43;;
2772;SDS011;1394;47.044;15.744;2022-07-10T01:25:26;3.27;;;2.23;;
2772;SDS011;1394;47.044;15.744;2022-07-10T01:27:56;3.10;;;2.50;;
2772;SDS011;1394;47.044;15.744;2022-07-10T01:30:24;4.03;;;3.00;;
2772;SDS011;1394;47.044;15.744;2022-07-10T01:32:55;3.37;;;2.80;;
2772;SDS011;1394;47.044;15.744;2022-07-10T01:35:22;3.23;;;2.47;;
2772;SDS011;1394;47.044;15.744;2022-07-10T01:37:49;4.17;;;2.97;;
2772;SDS011;1394;47.044;15.744;2022-07-10T01:40:19;2.83;;;2.40;;
2772;SDS011;1394;47.044;15.744;2022-07-10T01:42:52;3.07;;;2.63;;
2772;SDS011;1394;47.044;15.744;2022-07-10T01:45:20;3.20;;;2.70;;
2772;SDS011;1394;47.044;15.744;2022-07-10T01:47:47;3.17;;;2.70;;
2772;SDS011;1394;47.044;15.744;2022-07-10T01:50:18;3.10;;;2.43;;
2772;SDS011;1394;47.044;15.744;2022-07-10T01:52:45;3.93;;;2.47;;
2772;SDS011;1394;47.044;15.744;2022-07-10T01:55:12;3.13;;;2.57;;
2772;SDS011;1394;47.044;15.744;2022-07-10T01:57:43;3.67;;;2.60;;
2772;SDS011;1394;47.044;15.744;2022-07-10T02:00:11;3.37;;;2.60;;
2772;SDS011;1394;47.044;15.744;2022-07-10T02:02:38;3.27;;;2.60;;
2772;SDS011;1394;47.044;15.744;2022-07-10T02:05:06;4.10;;;2.50;;
2772;SDS011;1394;47.044;15.744;2022-07-10T02:07:32;3.57;;;2.97;;
2772;SDS011;1394;47.044;15.744;2022-07-10T02:09:59;4.10;;;2.63;;
2772;SDS011;1394;47.044;15.744;2022-07-10T02:12:27;4.57;;;2.60;;
2772;SDS011;1394;47.044;15.744;2022-07-10T02:14:55;3.03;;;2.60;;
2772;SDS011;1394;47.044;15.744;2022-07-10T02:17:25;3.10;;;2.80;;
2772;SDS011;1394;47.044;15.744;2022-07-10T02:19:53;3.87;;;2.80;;
2772;SDS011;1394;47.044;15.744;2022-07-10T02:22:20;3.50;;;2.50;;
2772;SDS011;1394;47.044;15.744;2022-07-10T02:24:47;4.40;;;2.87;;
2772;SDS011;1394;47.044;15.744;2022-07-10T02:27:15;3.20;;;2.70;;
2772;SDS011;1394;47.044;15.744;2022-07-10T02:29:42;3.47;;;2.70;;
2772;SDS011;1394;47.044;15.744;2022-07-10T02:32:10;3.00;;;2.70;;
2772;SDS011;1394;47.044;15.744;2022-07-10T02:34:38;4.17;;;2.23;;
2772;SDS011;1394;47.044;15.744;2022-07-10T02:37:05;4.00;;;2.50;;
2772;SDS011;1394;47.044;15.744;2022-07-10T02:39:32;3.20;;;2.53;;
2772;SDS011;1394;47.044;15.744;2022-07-10T02:41:59;4.60;;;2.67;;
2772;SDS011;1394;47.044;15.744;2022-07-10T02:44:37;3.37;;;2.40;;
2772;SDS011;1394;47.044;15.744;2022-07-10T02:47:04;2.90;;;2.50;;
2772;SDS011;1394;47.044;15.744;2022-07-10T02:49:33;3.43;;;3.00;;
2772;SDS011;1394;47.044;15.744;2022-07-10T02:52:00;3.50;;;2.90;;
2772;SDS011;1394;47.044;15.744;2022-07-10T02:54:31;3.40;;;2.63;;
2772;SDS011;1394;47.044;15.744;2022-07-10T02:56:59;3.27;;;2.37;;
2772;SDS011;1394;47.044;15.744;2022-07-10T02:59:30;4.23;;;2.80;;
2772;SDS011;1394;47.044;15.744;2022-07-10T03:01:57;3.27;;;2.60;;
2772;SDS011;1394;47.044;15.744;2022-07-10T03:04:25;6.00;;;3.03;;
2772;SDS011;1394;47.044;15.744;2022-07-10T03:06:54;3.33;;;2.60;;
2772;SDS011;1394;47.044;15.744;2022-07-10T03:09:21;3.20;;;2.50;;
2772;SDS011;1394;47.044;15.744;2022-07-10T03:11:51;3.37;;;2.47;;
2772;SDS011;1394;47.044;15.744;2022-07-10T03:14:18;4.50;;;2.80;;
2772;SDS011;1394;47.044;15.744;2022-07-10T03:16:45;3.83;;;2.70;;
2772;SDS011;1394;47.044;15.744;2022-07-10T03:19:12;4.33;;;2.53;;
2772;SDS011;1394;47.044;15.744;2022-07-10T03:21:40;3.90;;;2.97;;
2772;SDS011;1394;47.044;15.744;2022-07-10T03:24:08;4.30;;;2.70;;
2772;SDS011;1394;47.044;15.744;2022-07-10T03:26:36;9.63;;;2.50;;
2772;SDS011;1394;47.044;15.744;2022-07-10T03:29:03;3.47;;;2.50;;
2772;SDS011;1394;47.044;15.744;2022-07-10T03:31:30;4.80;;;2.70;;
2772;SDS011;1394;47.044;15.744;2022-07-10T03:33:58;4.10;;;2.50;;
2772;SDS011;1394;47.044;15.744;2022-07-10T03:36:25;4.20;;;2.70;;
2772;SDS011;1394;47.044;15.744;2022-07-10T03:38:52;3.40;;;2.40;;
2772;SDS011;1394;47.044;15.744;2022-07-10T03:41:24;3.00;;;2.30;;
2772;SDS011;1394;47.044;15.744;2022-07-10T03:43:52;2.87;;;2.40;;
2772;SDS011;1394;47.044;15.744;2022-07-10T03:46:19;2.77;;;2.30;;
2772;SDS011;1394;47.044;15.744;2022-07-10T03:48:47;5.00;;;2.63;;
2772;SDS011;1394;47.044;15.744;2022-07-10T03:51:14;3.00;;;2.50;;
2772;SDS011;1394;47.044;15.744;2022-07-10T03:53:41;3.30;;;2.63;;
2772;SDS011;1394;47.044;15.744;2022-07-10T03:56:09;2.43;;;2.23;;
2772;SDS011;1394;47.044;15.744;2022-07-10T03:58:58;3.13;;;2.83;;
2772;SDS011;1394;47.044;15.744;2022-07-10T04:01:24;3.17;;;2.53;;
2772;SDS011;1394;47.044;15.744;2022-07-10T04:03:51;3.00;;;2.47;;
2772;SDS011;1394;47.044;15.744;2022-07-10T04:06:18;3.10;;;2.60;;
2772;SDS011;1394;47.044;15.744;2022-07-10T04:08:46;2.70;;;2.30;;
2772;SDS011;1394;47.044;15.744;2022-07-10T04:11:13;2.47;;;2.27;;
2772;SDS011;1394;47.044;15.744;2022-07-10T04:13:40;3.50;;;2.70;;
2772;SDS011;1394;47.044;15.744;2022-07-10T04:16:09;4.13;;;2.67;;
2772;SDS011;1394;47.044;15.744;2022-07-10T04:18:38;3.90;;;3.00;;
2772;SDS011;1394;47.044;15.744;2022-07-10T04:21:06;3.37;;;2.40;;
2772;SDS011;1394;47.044;15.744;2022-07-10T04:23:33;3.50;;;2.90;;
2772;SDS011;1394;47.044;15.744;2022-07-10T04:26:01;4.00;;;3.20;;
2772;SDS011;1394;47.044;15.744;2022-07-10T04:28:28;3.77;;;3.00;;
2772;SDS011;1394;47.044;15.744;2022-07-10T04:30:55;4.23;;;2.57;;
2772;SDS011;1394;47.044;15.744;2022-07-10T04:33:24;3.87;;;2.90;;
2772;SDS011;1394;47.044;15.744;2022-07-10T04:35:51;3.47;;;2.70;;
2772;SDS011;1394;47.044;15.744;2022-07-10T04:38:19;3.00;;;2.67;;
2772;SDS011;1394;47.044;15.744;2022-07-10T04:40:46;5.50;;;2.93;;
2772;SDS011;1394;47.044;15.744;2022-07-10T04:43:13;4.80;;;2.70;;
2772;SDS011;1394;47.044;15.744;2022-07-10T04:45:41;3.90;;;2.93;;
2772;SDS011;1394;47.044;15.744;2022-07-10T04:48:08;3.40;;;2.60;;
2772;SDS011;1394;47.044;15.744;2022-07-10T04:50:37;4.80;;;2.80;;
2772;SDS011;1394;47.044;15.744;2022-07-10T04:53:04;4.47;;;3.10;;
2772;SDS011;1394;47.044;15.744;2022-07-10T04:55:31;3.60;;;3.07;;
2772;SDS011;1394;47.044;15.744;2022-07-10T04:57:58;3.17;;;2.83;;
2772;SDS011;1394;47.044;15.744;2022-07-10T05:00:27;3.17;;;2.87;;
2772;SDS011;1394;47.044;15.744;2022-07-10T05:02:54;3.70;;;3.03;;
2772;SDS011;1394;47.044;15.744;2022-07-10T05:05:21;4.03;;;2.70;;
2772;SDS011;1394;47.044;15.744;2022-07-10T05:07:52;3.10;;;2.80;;
2772;SDS011;1394;47.044;15.744;2022-07-10T05:10:20;3.00;;;2.70;;
2772;SDS011;1394;47.044;15.744;2022-07-10T05:12:48;3.83;;;3.43;;
2772;SDS011;1394;47.044;15.744;2022-07-10T05:15:16;4.27;;;2.57;;
2772;SDS011;1394;47.044;15.744;2022-07-10T05:17:44;4.50;;;2.90;;
2772;SDS011;1394;47.044;15.744;2022-07-10T05:20:12;2.90;;;2.60;;
2772;SDS011;1394;47.044;15.744;2022-07-10T05:22:39;3.40;;;2.70;;
2772;SDS011;1394;47.044;15.744;2022-07-10T05:25:08;3.33;;;3.03;;
2772;SDS011;1394;47.044;15.744;2022-07-10T05:27:36;3.90;;;2.73;;
2772;SDS011;1394;47.044;15.744;2022-07-10T05:30:04;3.27;;;2.43;;
2772;SDS011;1394;47.044;15.744;2022-07-10T05:32:31;3.10;;;2.67;;
2772;SDS011;1394;47.044;15.744;2022-07-10T05:34:58;3.00;;;2.80;;
2772;SDS011;1394;47.044;15.744;2022-07-10T05:37:26;3.77;;;2.63;;
2772;SDS011;1394;47.044;15.744;2022-07-10T05:39:53;3.53;;;2.97;;
2772;SDS011;1394;47.044;15.744;2022-07-10T05:42:21;2.97;;;2.67;;
2772;SDS011;1394;47.044;15.744;2022-07-10T05:44:49;5.83;;;2.73;;
2772;SDS011;1394;47.044;15.744;2022-07-10T05:47:16;3.90;;;3.30;;
2772;SDS011;1394;47.044;15.744;2022-07-10T05:49:43;3.20;;;2.43;;
2772;SDS011;1394;47.044;15.744;2022-07-10T05:52:11;3.53;;;2.83;;
2772;SDS011;1394;47.044;15.744;2022-07-10T05:54:38;5.10;;;2.80;;
2772;SDS011;1394;47.044;15.744;2022-07-10T05:57:05;3.70;;;2.80;;
2772;SDS011;1394;47.044;15.744;2022-07-10T05:59:37;3.30;;;3.00;;
2772;SDS011;1394;47.044;15.744;2022-07-10T06:02:07;3.30;;;2.97;;
2772;SDS011;1394;47.044;15.744;2022-07-10T06:04:35;3.17;;;2.87;;
2772;SDS011;1394;47.044;15.744;2022-07-10T06:07:02;3.10;;;2.80;;
2772;SDS011;1394;47.044;15.744;2022-07-10T06:09:29;6.23;;;3.30;;
2772;SDS011;1394;47.044;15.744;2022-07-10T06:11:57;4.33;;;3.93;;
2772;SDS011;1394;47.044;15.744;2022-07-10T06:14:24;4.23;;;3.27;;
2772;SDS011;1394;47.044;15.744;2022-07-10T06:16:52;3.97;;;3.30;;
2772;SDS011;1394;47.044;15.744;2022-07-10T06:19:20;5.20;;;3.50;;
2772;SDS011;1394;47.044;15.744;2022-07-10T06:21:47;4.10;;;3.60;;
2772;SDS011;1394;47.044;15.744;2022-07-10T06:24:34;3.93;;;3.53;;
2772;SDS011;1394;47.044;15.744;2022-07-10T06:27:02;4.10;;;3.70;;
2772;SDS011;1394;47.044;15.744;2022-07-10T06:29:29;4.10;;;3.70;;
2772;SDS011;1394;47.044;15.744;2022-07-10T06:31:58;3.70;;;3.30;;
2772;SDS011;1394;47.044;15.744;2022-07-10T06:34:26;5.10;;;3.20;;
2772;SDS011;1394;47.044;15.744;2022-07-10T06:36:56;3.43;;;2.83;;
2772;SDS011;1394;47.044;15.744;2022-07-10T06:39:28;3.80;;;2.80;;
2772;SDS011;1394;47.044;15.744;2022-07-10T06:42:00;5.00;;;3.13;;
2772;SDS011;1394;47.044;15.744;2022-07-10T06:44:27;3.37;;;2.90;;
2772;SDS011;1394;47.044;15.744;2022-07-10T06:46:59;3.17;;;2.80;;
2772;SDS011;1394;47.044;15.744;2022-07-10T06:49:44;3.10;;;2.80;;
2772;SDS011;1394;47.044;15.744;2022-07-10T06:52:13;3.40;;;3.10;;
2772;SDS011;1394;47.044;15.744;2022-07-10T06:54:40;4.63;;;2.40;;
2772;SDS011;1394;47.044;15.744;2022-07-10T06:57:08;3.97;;;2.57;;
2772;SDS011;1394;47.044;15.744;2022-07-10T06:59:35;4.73;;;2.70;;
2772;SDS011;1394;47.044;15.744;2022-07-10T07:02:04;3.30;;;3.00;;
2772;SDS011;1394;47.044;15.744;2022-07-10T07:04:31;3.00;;;2.73;;
2772;SDS011;1394;47.044;15.744;2022-07-10T07:06:59;4.43;;;3.20;;
2772;SDS011;1394;47.044;15.744;2022-07-10T07:09:28;3.33;;;3.03;;
2772;SDS011;1394;47.044;15.744;2022-07-10T07:11:55;3.30;;;3.00;;
2772;SDS011;1394;47.044;15.744;2022-07-10T07:14:25;3.10;;;2.80;;
2772;SDS011;1394;47.044;15.744;2022-07-10T07:16:53;3.87;;;3.30;;
2772;SDS011;1394;47.044;15.744;2022-07-10T07:19:32;3.20;;;2.90;;
2772;SDS011;1394;47.044;15.744;2022-07-10T07:22:21;3.20;;;2.90;;
2772;SDS011;1394;47.044;15.744;2022-07-10T07:25:07;4.50;;;2.67;;
2772;SDS011;1394;47.044;15.744;2022-07-10T07:27:36;2.80;;;2.40;;
2772;SDS011;1394;47.044;15.744;2022-07-10T07:30:04;3.67;;;2.90;;
2772;SDS011;1394;47.044;15.744;2022-07-10T07:32:32;2.77;;;2.53;;
2772;SDS011;1394;47.044;15.744;2022-07-10T07:35:03;2.90;;;2.30;;
2772;SDS011;1394;47.044;15.744;2022-07-10T07:37:35;3.07;;;2.13;;
2772;SDS011;1394;47.044;15.744;2022-07-10T07:40:02;2.37;;;2.10;;
2772;SDS011;1394;47.044;15.744;2022-07-10T07:42:30;3.57;;;2.10;;
2772;SDS011;1394;47.044;15.744;2022-07-10T07:44:57;2.50;;;2.10;;
2772;SDS011;1394;47.044;15.744;2022-07-10T07:47:24;2.67;;;1.97;;
2772;SDS011;1394;47.044;15.744;2022-07-10T07:49:52;5.90;;;2.30;;
2772;SDS011;1394;47.044;15.744;2022-07-10T07:52:23;5.53;;;4.13;;
2772;SDS011;1394;47.044;15.744;2022-07-10T07:54:50;3.23;;;2.60;;
2772;SDS011;1394;47.044;15.744;2022-07-10T07:57:17;3.37;;;2.00;;
2772;SDS011;1394;47.044;15.744;2022-07-10T07:59:45;3.10;;;2.10;;
2772;SDS011;1394;47.044;15.744;2022-07-10T08:02:15;2.80;;;2.10;;
2772;SDS011;1394;47.044;15.744;2022-07-10T08:04:42;2.30;;;1.90;;
2772;SDS011;1394;47.044;15.744;2022-07-10T08:07:10;2.03;;;1.80;;
2772;SDS011;1394;47.044;15.744;2022-07-10T08:09:39;2.10;;;1.37;;
2772;SDS011;1394;47.044;15.744;2022-07-10T08:12:06;2.33;;;1.73;;
2772;SDS011;1394;47.044;15.744;2022-07-10T08:14:34;3.10;;;1.70;;
2772;SDS011;1394;47.044;15.744;2022-07-10T08:17:02;2.63;;;1.97;;
2772;SDS011;1394;47.044;15.744;2022-07-10T08:19:30;2.33;;;1.70;;
2772;SDS011;1394;47.044;15.744;2022-07-10T08:21:58;2.33;;;1.93;;
2772;SDS011;1394;47.044;15.744;2022-07-10T08:24:25;2.47;;;1.90;;
2772;SDS011;1394;47.044;15.744;2022-07-10T08:26:53;2.17;;;1.80;;
2772;SDS011;1394;47.044;15.744;2022-07-10T08:29:21;2.30;;;1.80;;
2772;SDS011;1394;47.044;15.744;2022-07-10T08:31:48;2.30;;;1.80;;
2772;SDS011;1394;47.044;15.744;2022-07-10T08:34:16;2.40;;;2.00;;
2772;SDS011;1394;47.044;15.744;2022-07-10T08:36:43;2.23;;;1.90;;
2772;SDS011;1394;47.044;15.744;2022-07-10T08:39:11;2.20;;;1.60;;
2772;SDS011;1394;47.044;15.744;2022-07-10T08:41:40;2.30;;;1.80;;
2772;SDS011;1394;47.044;15.744;2022-07-10T08:44:15;2.63;;;2.13;;
2772;SDS011;1394;47.044;15.744;2022-07-10T08:46:42;2.53;;;1.80;;
2772;SDS011;1394;47.044;15.744;2022-07-10T08:49:11;2.20;;;1.80;;
2772;SDS011;1394;47.044;15.744;2022-07-10T08:51:40;3.23;;;1.90;;
2772;SDS011;1394;47.044;15.744;2022-07-10T08:54:08;2.50;;;2.10;;
2772;SDS011;1394;47.044;15.744;2022-07-10T08:56:36;2.63;;;1.87;;
2772;SDS011;1394;47.044;15.744;2022-07-10T08:59:04;2.20;;;1.90;;
2772;SDS011;1394;47.044;15.744;2022-07-10T09:01:34;2.50;;;2.00;;
2772;SDS011;1394;47.044;15.744;2022-07-10T09:04:01;3.97;;;2.43;;
2772;SDS011;1394;47.044;15.744;2022-07-10T09:06:29;2.43;;;1.70;;
2772;SDS011;1394;47.044;15.744;2022-07-10T09:09:00;2.83;;;1.80;;
2772;SDS011;1394;47.044;15.744;2022-07-10T09:11:27;2.93;;;2.20;;
2772;SDS011;1394;47.044;15.744;2022-07-10T09:13:56;2.20;;;1.77;;
2772;SDS011;1394;47.044;15.744;2022-07-10T09:16:25;2.50;;;1.90;;
2772;SDS011;1394;47.044;15.744;2022-07-10T09:18:54;2.73;;;1.67;;
2772;SDS011;1394;47.044;15.744;2022-07-10T09:21:22;3.90;;;2.10;;
2772;SDS011;1394;47.044;15.744;2022-07-10T09:23:50;2.80;;;1.80;;
2772;SDS011;1394;47.044;15.744;2022-07-10T09:26:18;3.20;;;2.10;;
2772;SDS011;1394;47.044;15.744;2022-07-10T09:28:45;2.27;;;1.80;;
2772;SDS011;1394;47.044;15.744;2022-07-10T09:31:13;3.13;;;1.80;;
2772;SDS011;1394;47.044;15.744;2022-07-10T09:33:40;2.73;;;2.07;;
2772;SDS011;1394;47.044;15.744;2022-07-10T09:36:11;4.30;;;2.20;;
2772;SDS011;1394;47.044;15.744;2022-07-10T09:38:49;3.83;;;2.60;;
2772;SDS011;1394;47.044;15.744;2022-07-10T09:41:17;3.30;;;1.80;;
2772;SDS011;1394;47.044;15.744;2022-07-10T09:43:45;2.20;;;1.80;;
2772;SDS011;1394;47.044;15.744;2022-07-10T09:46:14;2.50;;;2.20;;
2772;SDS011;1394;47.044;15.744;2022-07-10T09:48:42;2.70;;;1.80;;
2772;SDS011;1394;47.044;15.744;2022-07-10T09:51:11;2.73;;;2.20;;
2772;SDS011;1394;47.044;15.744;2022-07-10T09:53:39;2.37;;;1.80;;
2772;SDS011;1394;47.044;15.744;2022-07-10T09:56:07;2.37;;;1.93;;
2772;SDS011;1394;47.044;15.744;2022-07-10T09:58:35;2.37;;;2.10;;
2772;SDS011;1394;47.044;15.744;2022-07-10T10:01:03;2.60;;;2.03;;
2772;SDS011;1394;47.044;15.744;2022-07-10T10:03:32;2.40;;;1.90;;
2772;SDS011;1394;47.044;15.744;2022-07-10T10:06:03;2.37;;;2.00;;
2772;SDS011;1394;47.044;15.744;2022-07-10T10:08:35;2.33;;;1.93;;
2772;SDS011;1394;47.044;15.744;2022-07-10T10:11:05;2.40;;;1.83;;
2772;SDS011;1394;47.044;15.744;2022-07-10T10:13:34;3.27;;;2.20;;
2772;SDS011;1394;47.044;15.744;2022-07-10T10:16:01;2.80;;;1.87;;
2772;SDS011;1394;47.044;15.744;2022-07-10T10:18:29;2.13;;;1.80;;
2772;SDS011;1394;47.044;15.744;2022-07-10T10:20:57;2.20;;;1.60;;
2772;SDS011;1394;47.044;15.744;2022-07-10T10:23:24;2.90;;;2.00;;
2772;SDS011;1394;47.044;15.744;2022-07-10T10:25:55;2.20;;;1.90;;
2772;SDS011;1394;47.044;15.744;2022-07-10T10:28:26;2.50;;;2.00;;
2772;SDS011;1394;47.044;15.744;2022-07-10T10:30:54;2.10;;;1.70;;
2772;SDS011;1394;47.044;15.744;2022-07-10T10:36:10;2.20;;;1.80;;
2772;SDS011;1394;47.044;15.744;2022-07-10T10:41:26;2.70;;;2.30;;
2772;SDS011;1394;47.044;15.744;2022-07-10T10:46:52;3.20;;;2.27;;
2772;SDS011;1394;47.044;15.744;2022-07-10T10:49:22;4.70;;;2.37;;
2772;SDS011;1394;47.044;15.744;2022-07-10T10:51:56;4.53;;;2.67;;
2772;SDS011;1394;47.044;15.744;2022-07-10T10:54:32;2.83;;;2.30;;
2772;SDS011;1394;47.044;15.744;2022-07-10T10:57:23;3.37;;;2.43;;
2772;SDS011;1394;47.044;15.744;2022-07-10T11:00:04;3.40;;;2.43;;
2772;SDS011;1394;47.044;15.744;2022-07-10T11:02:33;2.80;;;2.60;;
2772;SDS011;1394;47.044;15.744;2022-07-10T11:07:53;2.50;;;2.20;;
2772;SDS011;1394;47.044;15.744;2022-07-10T11:10:27;2.80;;;2.03;;
2772;SDS011;1394;47.044;15.744;2022-07-10T11:12:58;3.07;;;2.47;;
2772;SDS011;1394;47.044;15.744;2022-07-10T11:15:27;2.90;;;2.60;;
2772;SDS011;1394;47.044;15.744;2022-07-10T11:17:55;3.07;;;2.77;;
2772;SDS011;1394;47.044;15.744;2022-07-10T11:20:23;3.00;;;2.20;;
2772;SDS011;1394;47.044;15.744;2022-07-10T11:22:52;3.00;;;2.60;;
2772;SDS011;1394;47.044;15.744;2022-07-10T11:25:31;3.60;;;2.20;;
2772;SDS011;1394;47.044;15.744;2022-07-10T11:28:09;2.83;;;2.53;;
2772;SDS011;1394;47.044;15.744;2022-07-10T11:30:47;2.67;;;2.40;;
2772;SDS011;1394;47.044;15.744;2022-07-10T11:33:14;2.90;;;2.20;;
2772;SDS011;1394;47.044;15.744;2022-07-10T11:35:47;2.93;;;2.10;;
2772;SDS011;1394;47.044;15.744;2022-07-10T11:38:21;2.40;;;2.07;;
2772;SDS011;1394;47.044;15.744;2022-07-10T11:40:51;3.60;;;2.20;;
2772;SDS011;1394;47.044;15.744;2022-07-10T11:43:21;3.30;;;2.43;;
2772;SDS011;1394;47.044;15.744;2022-07-10T11:45:50;2.70;;;2.20;;
2772;SDS011;1394;47.044;15.744;2022-07-10T11:48:20;3.93;;;2.50;;
2772;SDS011;1394;47.044;15.744;2022-07-10T11:50:48;2.50;;;2.00;;
2772;SDS011;1394;47.044;15.744;2022-07-10T11:53:21;2.77;;;2.20;;
2772;SDS011;1394;47.044;15.744;2022-07-10T11:55:49;3.63;;;2.30;;
2772;SDS011;1394;47.044;15.744;2022-07-10T11:58:17;2.60;;;2.30;;
2772;SDS011;1394;47.044;15.744;2022-07-10T12:00:57;2.50;;;2.27;;
2772;SDS011;1394;47.044;15.744;2022-07-10T12:03:26;4.67;;;2.57;;
2772;SDS011;1394;47.044;15.744;2022-07-10T12:05:54;2.90;;;2.40;;
2772;SDS011;1394;47.044;15.744;2022-07-10T12:08:21;5.60;;;2.37;;
2772;SDS011;1394;47.044;15.744;2022-07-10T12:10:48;2.77;;;2.47;;
2772;SDS011;1394;47.044;15.744;2022-07-10T12:13:15;3.03;;;2.60;;
2772;SDS011;1394;47.044;15.744;2022-07-10T12:15:43;3.97;;;2.50;;
2772;SDS011;1394;47.044;15.744;2022-07-10T12:18:16;3.73;;;2.40;;
2772;SDS011;1394;47.044;15.744;2022-07-10T12:20:44;3.63;;;2.60;;
2772;SDS011;1394;47.044;15.744;2022-07-10T12:23:12;2.87;;;2.33;;
2772;SDS011;1394;47.044;15.744;2022-07-10T12:25:41;5.50;;;2.37;;
2772;SDS011;1394;47.044;15.744;2022-07-10T12:28:09;2.40;;;1.80;;
2772;SDS011;1394;47.044;15.744;2022-07-10T12:30:38;2.47;;;1.93;;
2772;SDS011;1394;47.044;15.744;2022-07-10T12:33:06;2.80;;;2.10;;
2772;SDS011;1394;47.044;15.744;2022-07-10T12:38:18;2.50;;;2.00;;
2772;SDS011;1394;47.044;15.744;2022-07-10T12:40:45;2.20;;;1.90;;
2772;SDS011;1394;47.044;15.744;2022-07-10T12:43:23;2.57;;;2.23;;
2772;SDS011;1394;47.044;15.744;2022-07-10T12:48:33;2.33;;;2.07;;
2772;SDS011;1394;47.044;15.744;2022-07-10T12:53:47;2.40;;;2.10;;
2772;SDS011;1394;47.044;15.744;2022-07-10T12:56:27;2.13;;;1.93;;
2772;SDS011;1394;47.044;15.744;2022-07-10T12:58:55;2.83;;;2.07;;
2772;SDS011;1394;47.044;15.744;2022-07-10T13:01:22;2.33;;;2.13;;
2772;SDS011;1394;47.044;15.744;2022-07-10T13:03:56;2.43;;;2.20;;
2772;SDS011;1394;47.044;15.744;2022-07-10T13:06:30;3.30;;;2.40;;
2772;SDS011;1394;47.044;15.744;2022-07-10T13:08:59;3.20;;;2.10;;
2772;SDS011;1394;47.044;15.744;2022-07-10T13:11:26;2.60;;;2.20;;
2772;SDS011;1394;47.044;15.744;2022-07-10T13:13:54;2.50;;;2.20;;
2772;SDS011;1394;47.044;15.744;2022-07-10T13:16:24;3.10;;;2.20;;
2772;SDS011;1394;47.044;15.744;2022-07-10T13:18:52;2.40;;;1.90;;
2772;SDS011;1394;47.044;15.744;2022-07-10T13:21:20;2.40;;;1.90;;
2772;SDS011;1394;47.044;15.744;2022-07-10T13:23:47;2.37;;;1.97;;
2772;SDS011;1394;47.044;15.744;2022-07-10T13:26:19;2.23;;;1.87;;
2772;SDS011;1394;47.044;15.744;2022-07-10T13:28:46;3.27;;;1.70;;
2772;SDS011;1394;47.044;15.744;2022-07-10T13:31:14;2.50;;;1.80;;
2772;SDS011;1394;47.044;15.744;2022-07-10T13:33:42;2.60;;;2.00;;
2772;SDS011;1394;47.044;15.744;2022-07-10T13:36:09;2.30;;;1.93;;
2772;SDS011;1394;47.044;15.744;2022-07-10T13:38:36;2.07;;;1.70;;
2772;SDS011;1394;47.044;15.744;2022-07-10T13:41:04;2.67;;;2.00;;
2772;SDS011;1394;47.044;15.744;2022-07-10T13:43:32;2.90;;;1.90;;
2772;SDS011;1394;47.044;15.744;2022-07-10T13:46:00;2.10;;;1.77;;
2772;SDS011;1394;47.044;15.744;2022-07-10T13:48:28;2.80;;;2.13;;
2772;SDS011;1394;47.044;15.744;2022-07-10T13:50:56;4.57;;;2.27;;
2772;SDS011;1394;47.044;15.744;2022-07-10T13:53:23;2.60;;;2.20;;
2772;SDS011;1394;47.044;15.744;2022-07-10T13:55:51;2.40;;;2.07;;
2772;SDS011;1394;47.044;15.744;2022-07-10T13:58:19;3.00;;;2.13;;
2772;SDS011;1394;47.044;15.744;2022-07-10T14:00:48;3.50;;;2.07;;
2772;SDS011;1394;47.044;15.744;2022-07-10T14:03:15;2.33;;;2.07;;
2772;SDS011;1394;47.044;15.744;2022-07-10T14:05:43;2.57;;;2.03;;
2772;SDS011;1394;47.044;15.744;2022-07-10T14:08:10;2.17;;;1.80;;
2772;SDS011;1394;47.044;15.744;2022-07-10T14:10:37;3.60;;;2.30;;
2772;SDS011;1394;47.044;15.744;2022-07-10T14:13:05;2.17;;;1.77;;
2772;SDS011;1394;47.044;15.744;2022-07-10T14:15:35;2.10;;;1.63;;
2772;SDS011;1394;47.044;15.744;2022-07-10T14:18:03;2.20;;;1.67;;
2772;SDS011;1394;47.044;15.744;2022-07-10T14:20:31;2.27;;;1.60;;
2772;SDS011;1394;47.044;15.744;2022-07-10T14:23:18;2.00;;;1.30;;
2772;SDS011;1394;47.044;15.744;2022-07-10T14:25:45;1.90;;;1.40;;
2772;SDS011;1394;47.044;15.744;2022-07-10T14:28:13;1.70;;;1.20;;
2772;SDS011;1394;47.044;15.744;2022-07-10T14:30:41;2.10;;;1.20;;
2772;SDS011;1394;47.044;15.744;2022-07-10T14:33:10;2.70;;;1.20;;
2772;SDS011;1394;47.044;15.744;2022-07-10T14:35:37;2.00;;;1.17;;
2772;SDS011;1394;47.044;15.744;2022-07-10T14:38:04;1.83;;;1.43;;
2772;SDS011;1394;47.044;15.744;2022-07-10T14:40:32;1.93;;;1.40;;
2772;SDS011;1394;47.044;15.744;2022-07-10T14:42:59;2.13;;;1.23;;
2772;SDS011;1394;47.044;15.744;2022-07-10T14:45:26;2.20;;;1.20;;
2772;SDS011;1394;47.044;15.744;2022-07-10T14:47:57;2.20;;;1.27;;
2772;SDS011;1394;47.044;15.744;2022-07-10T14:50:26;1.90;;;1.30;;
2772;SDS011;1394;47.044;15.744;2022-07-10T14:52:57;1.80;;;1.30;;
2772;SDS011;1394;47.044;15.744;2022-07-10T14:55:24;1.90;;;1.20;;
2772;SDS011;1394;47.044;15.744;2022-07-10T14:57:52;3.13;;;1.20;;
2772;SDS011;1394;47.044;15.744;2022-07-10T15:00:20;7.20;;;4.47;;
2772;SDS011;1394;47.044;15.744;2022-07-10T15:02:47;1.87;;;1.23;;
2772;SDS011;1394;47.044;15.744;2022-07-10T15:05:14;1.90;;;1.10;;
2772;SDS011;1394;47.044;15.744;2022-07-10T15:07:43;2.03;;;1.23;;
2772;SDS011;1394;47.044;15.744;2022-07-10T15:10:10;2.40;;;1.57;;
2772;SDS011;1394;47.044;15.744;2022-07-10T15:12:41;1.80;;;1.23;;
2772;SDS011;1394;47.044;15.744;2022-07-10T15:15:09;4.30;;;2.60;;
2772;SDS011;1394;47.044;15.744;2022-07-10T15:17:37;1.80;;;1.30;;
2772;SDS011;1394;47.044;15.744;2022-07-10T15:20:05;2.03;;;1.33;;
2772;SDS011;1394;47.044;15.744;2022-07-10T15:22:33;2.23;;;1.50;;
2772;SDS011;1394;47.044;15.744;2022-07-10T15:25:02;2.40;;;1.80;;
2772;SDS011;1394;47.044;15.744;2022-07-10T15:27:30;2.60;;;1.10;;
2772;SDS011;1394;47.044;15.744;2022-07-10T15:29:58;2.20;;;1.20;;